Other Surface Observations
Issued by NWS Great Falls, MT

Home | Current Version | Previous Version | Text Only | Print | Product List | Glossary On
Versions: 1 2 3 4 5 6 7 8 9 10 11 12 13 14 15 16 17 18 19 20 21 22 23 24 25 26 27 28 29 30 31 32 33 34 35 36 37 38 39 40 41 42 43 44 45 46 47 48 49 50
000
SXUS55 KTFX 272123
OSOTFX
AREA AWOS OBSERVATIONS
NATIONAL WEATHER SERVICE GREAT FALLS MT
0220 PM MST THU NOV 27 2014

METAR KPWD 272115Z AUTO 09016G21KT 1 1/4SM M07/M09 A2982 RMK PLENTYWOOD
METAR KPO1 272115Z AUTO 7SM M01/M03 A2978 RMK POPLAR
METAR K1S3 272115Z AUTO 00000KT 10SM 07/02 A2979 RMK FORSYTH
METAR KS71 272115Z AUTO 27007KT 10SM 12/04 A2969 RMK CHINOOK
METAR K6S0 272115Z AUTO 24032G41KT 10SM 14/M02 A2979 RMK BIG TIMBER
METAR K79S 272115Z AUTO 24018G24KT 10SM 15/03 A2972 RMK FORT BENTON
METAR KEKS 272115Z AUTO 13017G33KT 10SM 13/M03 A3008 RMK ENNIS
METAR K38S 272115Z AUTO 15011G19KT 10SM 12/01 A2995 RMK DEER LODGE
METAR K6S5 272115Z AUTO 16010KT 10SM 15/02 A2989 RMK HAMILTON
METAR KS59 272115Z AUTO 00000KT 10SM 09/06 A2980 RMK LIBBY
METAR K88M 272115Z AUTO 10010G15KT 10SM 10/04 A2976 RMK EUREKA



USA.gov is the U.S. government's official web portal to all federal, state and local government web resources and services.